sensor_id;sensor_type;location;lat;lon;timestamp;pressure;altitude;pressure_sealevel;temperature;humidity
16016;BME280;8112;53.592;10.184;2023-07-29T00:04:36;100437.03;;;18.86;100.00
16016;BME280;8112;53.592;10.184;2023-07-29T00:09:38;100430.63;;;18.78;100.00
16016;BME280;8112;53.592;10.184;2023-07-29T00:14:40;100420.53;;;18.72;100.00
16016;BME280;8112;53.592;10.184;2023-07-29T00:19:42;100423.28;;;18.62;100.00
16016;BME280;8112;53.592;10.184;2023-07-29T00:24:51;100414.16;;;18.37;100.00
16016;BME280;8112;53.592;10.184;2023-07-29T00:29:53;100406.53;;;18.24;100.00
16016;BME280;8112;53.592;10.184;2023-07-29T00:34:55;100408.31;;;18.05;100.00
16016;BME280;8112;53.592;10.184;2023-07-29T00:39:58;100405.66;;;18.05;100.00
16016;BME280;8112;53.592;10.184;2023-07-29T00:45:00;100409.88;;;17.98;100.00
16016;BME280;8112;53.592;10.184;2023-07-29T00:50:02;100401.56;;;18.01;100.00
16016;BME280;8112;53.592;10.184;2023-07-29T00:55:07;100384.88;;;17.99;100.00
16016;BME280;8112;53.592;10.184;2023-07-29T01:00:10;100391.66;;;17.93;100.00
16016;BME280;8112;53.592;10.184;2023-07-29T01:05:13;100382.41;;;17.88;100.00
16016;BME280;8112;53.592;10.184;2023-07-29T01:10:28;100377.38;;;17.85;100.00
16016;BME280;8112;53.592;10.184;2023-07-29T01:15:36;100375.41;;;17.87;100.00
16016;BME280;8112;53.592;10.184;2023-07-29T01:20:43;100371.56;;;17.99;100.00
16016;BME280;8112;53.592;10.184;2023-07-29T01:25:47;100343.88;;;18.10;100.00
16016;BME280;8112;53.592;10.184;2023-07-29T01:30:52;100353.44;;;18.13;100.00
16016;BME280;8112;53.592;10.184;2023-07-29T01:36:01;100350.69;;;18.22;100.00
16016;BME280;8112;53.592;10.184;2023-07-29T01:41:08;100356.66;;;18.34;100.00
16016;BME280;8112;53.592;10.184;2023-07-29T01:46:17;100357.63;;;18.51;100.00
16016;BME280;8112;53.592;10.184;2023-07-29T01:51:22;100367.56;;;18.59;100.00
16016;BME280;8112;53.592;10.184;2023-07-29T01:56:25;100373.88;;;18.58;100.00
16016;BME280;8112;53.592;10.184;2023-07-29T02:01:29;100390.00;;;18.66;100.00
16016;BME280;8112;53.592;10.184;2023-07-29T02:06:31;100391.72;;;18.76;100.00
16016;BME280;8112;53.592;10.184;2023-07-29T02:11:35;100399.34;;;18.71;100.00
16016;BME280;8112;53.592;10.184;2023-07-29T02:16:36;100386.59;;;18.46;100.00
16016;BME280;8112;53.592;10.184;2023-07-29T02:21:39;100385.44;;;18.31;100.00
16016;BME280;8112;53.592;10.184;2023-07-29T02:26:42;100387.31;;;18.20;100.00
16016;BME280;8112;53.592;10.184;2023-07-29T02:31:44;100389.16;;;18.20;100.00
16016;BME280;8112;53.592;10.184;2023-07-29T02:36:46;100398.16;;;18.19;100.00
16016;BME280;8112;53.592;10.184;2023-07-29T02:41:49;100408.81;;;18.19;100.00
16016;BME280;8112;53.592;10.184;2023-07-29T02:46:51;100398.97;;;18.19;100.00
16016;BME280;8112;53.592;10.184;2023-07-29T02:51:55;100403.09;;;18.14;100.00
16016;BME280;8112;53.592;10.184;2023-07-29T02:56:58;100400.69;;;18.11;100.00
16016;BME280;8112;53.592;10.184;2023-07-29T03:02:01;100395.66;;;18.07;100.00
16016;BME280;8112;53.592;10.184;2023-07-29T03:07:03;100406.19;;;18.09;100.00
16016;BME280;8112;53.592;10.184;2023-07-29T03:12:06;100402.00;;;18.06;100.00
16016;BME280;8112;53.592;10.184;2023-07-29T03:17:08;100398.06;;;18.01;100.00
16016;BME280;8112;53.592;10.184;2023-07-29T03:22:10;100403.38;;;18.01;100.00
16016;BME280;8112;53.592;10.184;2023-07-29T03:27:13;100408.63;;;18.02;100.00
16016;BME280;8112;53.592;10.184;2023-07-29T03:32:16;100409.88;;;17.98;100.00
16016;BME280;8112;53.592;10.184;2023-07-29T03:37:17;100423.03;;;18.00;100.00
16016;BME280;8112;53.592;10.184;2023-07-29T03:42:20;100419.16;;;17.94;100.00
16016;BME280;8112;53.592;10.184;2023-07-29T03:47:22;100427.69;;;17.98;100.00
16016;BME280;8112;53.592;10.184;2023-07-29T03:52:25;100433.47;;;18.03;100.00
16016;BME280;8112;53.592;10.184;2023-07-29T03:57:28;100436.09;;;18.13;100.00
16016;BME280;8112;53.592;10.184;2023-07-29T04:02:30;100426.78;;;18.17;100.00
16016;BME280;8112;53.592;10.184;2023-07-29T04:07:33;100434.19;;;18.23;100.00
16016;BME280;8112;53.592;10.184;2023-07-29T04:12:37;100423.63;;;18.31;100.00
16016;BME280;8112;53.592;10.184;2023-07-29T04:17:38;100414.53;;;18.52;100.00
16016;BME280;8112;53.592;10.184;2023-07-29T04:22:40;100422.53;;;18.70;100.00
16016;BME280;8112;53.592;10.184;2023-07-29T04:27:43;100427.97;;;18.78;100.00
16016;BME280;8112;53.592;10.184;2023-07-29T04:32:45;100422.00;;;18.85;100.00
16016;BME280;8112;53.592;10.184;2023-07-29T04:37:48;100430.28;;;18.63;100.00
16016;BME280;8112;53.592;10.184;2023-07-29T04:42:52;100428.47;;;18.82;100.00
16016;BME280;8112;53.592;10.184;2023-07-29T04:47:53;100421.88;;;18.86;100.00
16016;BME280;8112;53.592;10.184;2023-07-29T04:52:55;100422.13;;;18.83;100.00
16016;BME280;8112;53.592;10.184;2023-07-29T04:57:58;100407.88;;;18.92;100.00
16016;BME280;8112;53.592;10.184;2023-07-29T05:03:00;100416.06;;;19.09;100.00
16016;BME280;8112;53.592;10.184;2023-07-29T05:08:03;100401.28;;;19.15;100.00
16016;BME280;8112;53.592;10.184;2023-07-29T05:13:06;100403.63;;;19.00;100.00
16016;BME280;8112;53.592;10.184;2023-07-29T05:18:08;100398.75;;;19.13;100.00
16016;BME280;8112;53.592;10.184;2023-07-29T05:23:10;100414.13;;;19.19;100.00
16016;BME280;8112;53.592;10.184;2023-07-29T05:28:14;100407.78;;;19.39;100.00
16016;BME280;8112;53.592;10.184;2023-07-29T05:33:16;100399.34;;;19.51;100.00
16016;BME280;8112;53.592;10.184;2023-07-29T05:38:18;100390.59;;;19.68;100.00
16016;BME280;8112;53.592;10.184;2023-07-29T05:43:21;100386.59;;;19.72;100.00
16016;BME280;8112;53.592;10.184;2023-07-29T05:48:23;100375.03;;;19.98;100.00
16016;BME280;8112;53.592;10.184;2023-07-29T05:53:25;100374.94;;;20.16;100.00
16016;BME280;8112;53.592;10.184;2023-07-29T05:58:28;100360.22;;;20.20;100.00
16016;BME280;8112;53.592;10.184;2023-07-29T06:03:31;100358.28;;;20.55;100.00
16016;BME280;8112;53.592;10.184;2023-07-29T06:08:33;100346.75;;;20.79;100.00
16016;BME280;8112;53.592;10.184;2023-07-29T06:13:36;100329.50;;;20.49;100.00
16016;BME280;8112;53.592;10.184;2023-07-29T06:18:38;100331.16;;;20.33;100.00
16016;BME280;8112;53.592;10.184;2023-07-29T06:23:40;100319.63;;;20.58;100.00
16016;BME280;8112;53.592;10.184;2023-07-29T06:28:43;100313.78;;;20.62;100.00
16016;BME280;8112;53.592;10.184;2023-07-29T06:33:45;100311.47;;;20.84;100.00
16016;BME280;8112;53.592;10.184;2023-07-29T06:38:46;100325.84;;;20.75;100.00
16016;BME280;8112;53.592;10.184;2023-07-29T06:43:50;100324.19;;;20.99;100.00
16016;BME280;8112;53.592;10.184;2023-07-29T06:48:51;100293.63;;;21.33;100.00
16016;BME280;8112;53.592;10.184;2023-07-29T06:53:53;100295.81;;;21.29;100.00
16016;BME280;8112;53.592;10.184;2023-07-29T06:58:56;100293.53;;;21.66;100.00
16016;BME280;8112;53.592;10.184;2023-07-29T07:03:58;100280.31;;;21.96;100.00
16016;BME280;8112;53.592;10.184;2023-07-29T07:08:59;100287.41;;;22.12;100.00
16016;BME280;8112;53.592;10.184;2023-07-29T07:14:02;100294.78;;;21.87;100.00
16016;BME280;8112;53.592;10.184;2023-07-29T07:19:04;100294.34;;;21.67;100.00
16016;BME280;8112;53.592;10.184;2023-07-29T07:24:06;100297.03;;;21.10;100.00
16016;BME280;8112;53.592;10.184;2023-07-29T07:29:09;100299.41;;;20.55;100.00
16016;BME280;8112;53.592;10.184;2023-07-29T07:34:14;100301.91;;;20.48;100.00
16016;BME280;8112;53.592;10.184;2023-07-29T07:39:15;100304.41;;;20.67;100.00
16016;BME280;8112;53.592;10.184;2023-07-29T07:44:18;100301.75;;;20.91;100.00
16016;BME280;8112;53.592;10.184;2023-07-29T07:49:20;100299.38;;;21.13;100.00
16016;BME280;8112;53.592;10.184;2023-07-29T07:54:22;100303.72;;;21.23;100.00
16016;BME280;8112;53.592;10.184;2023-07-29T07:59:25;100294.69;;;21.15;100.00
16016;BME280;8112;53.592;10.184;2023-07-29T08:04:26;100285.81;;;21.63;100.00
16016;BME280;8112;53.592;10.184;2023-07-29T08:09:28;100287.91;;;21.84;100.00
16016;BME280;8112;53.592;10.184;2023-07-29T08:14:31;100291.38;;;21.93;100.00
16016;BME280;8112;53.592;10.184;2023-07-29T08:19:33;100275.16;;;21.46;100.00
16016;BME280;8112;53.592;10.184;2023-07-29T08:24:36;100270.00;;;21.76;100.00
16016;BME280;8112;53.592;10.184;2023-07-29T08:29:39;100268.25;;;21.92;100.00
16016;BME280;8112;53.592;10.184;2023-07-29T08:34:40;100275.13;;;21.55;100.00
16016;BME280;8112;53.592;10.184;2023-07-29T08:39:42;100270.56;;;21.15;100.00
16016;BME280;8112;53.592;10.184;2023-07-29T08:44:45;100279.81;;;21.53;100.00
16016;BME280;8112;53.592;10.184;2023-07-29T08:49:51;100283.09;;;21.23;100.00
16016;BME280;8112;53.592;10.184;2023-07-29T08:54:53;100286.19;;;21.52;100.00
16016;BME280;8112;53.592;10.184;2023-07-29T08:59:57;100278.13;;;21.60;100.00
16016;BME280;8112;53.592;10.184;2023-07-29T09:04:59;100270.47;;;22.35;100.00
16016;BME280;8112;53.592;10.184;2023-07-29T09:10:03;100267.09;;;22.18;100.00
16016;BME280;8112;53.592;10.184;2023-07-29T09:15:07;100271.09;;;22.22;100.00
16016;BME280;8112;53.592;10.184;2023-07-29T09:20:10;100252.06;;;22.55;100.00
16016;BME280;8112;53.592;10.184;2023-07-29T09:25:12;100253.44;;;22.51;100.00
16016;BME280;8112;53.592;10.184;2023-07-29T09:30:18;100245.97;;;22.76;100.00
16016;BME280;8112;53.592;10.184;2023-07-29T09:35:20;100225.34;;;23.37;100.00
16016;BME280;8112;53.592;10.184;2023-07-29T09:40:21;100215.19;;;23.69;100.00
16016;BME280;8112;53.592;10.184;2023-07-29T09:45:26;100207.78;;;24.37;100.00
16016;BME280;8112;53.592;10.184;2023-07-29T09:50:28;100191.78;;;24.07;100.00
16016;BME280;8112;53.592;10.184;2023-07-29T09:55:32;100189.16;;;23.55;100.00
16016;BME280;8112;53.592;10.184;2023-07-29T10:00:36;100183.66;;;23.11;100.00
16016;BME280;8112;53.592;10.184;2023-07-29T10:05:39;100188.56;;;23.08;100.00
16016;BME280;8112;53.592;10.184;2023-07-29T10:10:42;100202.47;;;23.11;100.00
16016;BME280;8112;53.592;10.184;2023-07-29T10:15:45;100198.53;;;23.81;100.00
16016;BME280;8112;53.592;10.184;2023-07-29T10:20:48;100201.88;;;24.55;100.00
16016;BME280;8112;53.592;10.184;2023-07-29T10:25:57;100183.91;;;25.39;100.00
16016;BME280;8112;53.592;10.184;2023-07-29T10:31:03;100172.84;;;24.79;100.00
16016;BME280;8112;53.592;10.184;2023-07-29T10:36:05;100167.53;;;24.92;100.00
16016;BME280;8112;53.592;10.184;2023-07-29T10:41:07;100175.63;;;24.92;100.00
16016;BME280;8112;53.592;10.184;2023-07-29T10:46:20;100177.69;;;24.04;100.00
16016;BME280;8112;53.592;10.184;2023-07-29T10:51:26;100174.72;;;23.99;100.00
16016;BME280;8112;53.592;10.184;2023-07-29T10:56:31;100164.84;;;24.63;100.00
16016;BME280;8112;53.592;10.184;2023-07-29T11:01:34;100159.31;;;25.63;100.00
16016;BME280;8112;53.592;10.184;2023-07-29T11:07:01;100147.59;;;24.86;100.00
16016;BME280;8112;53.592;10.184;2023-07-29T11:12:05;100152.91;;;23.94;100.00
16016;BME280;8112;53.592;10.184;2023-07-29T11:17:10;100147.97;;;24.19;100.00
16016;BME280;8112;53.592;10.184;2023-07-29T11:22:12;100147.47;;;23.87;100.00
16016;BME280;8112;53.592;10.184;2023-07-29T11:27:14;100155.25;;;24.47;100.00
16016;BME280;8112;53.592;10.184;2023-07-29T11:32:17;100147.66;;;25.00;100.00
16016;BME280;8112;53.592;10.184;2023-07-29T11:37:19;100152.94;;;24.16;100.00
16016;BME280;8112;53.592;10.184;2023-07-29T11:42:22;100157.66;;;23.70;100.00
16016;BME280;8112;53.592;10.184;2023-07-29T11:47:25;100162.34;;;23.61;100.00
16016;BME280;8112;53.592;10.184;2023-07-29T11:52:27;100171.50;;;23.67;100.00
16016;BME280;8112;53.592;10.184;2023-07-29T11:57:30;100173.06;;;23.10;100.00
16016;BME280;8112;53.592;10.184;2023-07-29T12:02:36;100165.25;;;24.03;100.00
16016;BME280;8112;53.592;10.184;2023-07-29T12:07:39;100160.91;;;24.59;100.00
16016;BME280;8112;53.592;10.184;2023-07-29T12:12:44;100164.56;;;24.80;100.00
16016;BME280;8112;53.592;10.184;2023-07-29T12:17:48;100159.81;;;25.24;100.00
16016;BME280;8112;53.592;10.184;2023-07-29T12:22:54;100158.13;;;25.23;100.00
16016;BME280;8112;53.592;10.184;2023-07-29T12:27:55;100162.91;;;24.79;100.00
16016;BME280;8112;53.592;10.184;2023-07-29T12:32:59;100156.31;;;24.88;100.00
16016;BME280;8112;53.592;10.184;2023-07-29T12:38:01;100149.88;;;24.83;100.00
16016;BME280;8112;53.592;10.184;2023-07-29T12:43:02;100140.16;;;24.88;100.00
16016;BME280;8112;53.592;10.184;2023-07-29T12:48:05;100137.72;;;24.65;100.00
16016;BME280;8112;53.592;10.184;2023-07-29T12:53:08;100139.91;;;24.48;100.00
16016;BME280;8112;53.592;10.184;2023-07-29T12:58:14;100140.06;;;25.10;100.00
16016;BME280;8112;53.592;10.184;2023-07-29T13:03:17;100145.63;;;25.09;100.00
16016;BME280;8112;53.592;10.184;2023-07-29T13:08:18;100150.22;;;25.08;100.00
16016;BME280;8112;53.592;10.184;2023-07-29T13:13:20;100155.69;;;25.35;100.00
16016;BME280;8112;53.592;10.184;2023-07-29T13:18:23;100155.19;;;25.11;100.00
16016;BME280;8112;53.592;10.184;2023-07-29T13:23:25;100154.31;;;25.04;100.00
16016;BME280;8112;53.592;10.184;2023-07-29T13:28:27;100155.41;;;25.72;100.00
16016;BME280;8112;53.592;10.184;2023-07-29T13:33:30;100157.88;;;25.80;100.00
16016;BME280;8112;53.592;10.184;2023-07-29T13:38:34;100159.41;;;25.34;100.00
16016;BME280;8112;53.592;10.184;2023-07-29T13:43:35;100156.66;;;25.21;100.00
16016;BME280;8112;53.592;10.184;2023-07-29T13:48:38;100151.81;;;24.96;100.00
16016;BME280;8112;53.592;10.184;2023-07-29T13:53:40;100142.50;;;25.05;100.00
16016;BME280;8112;53.592;10.184;2023-07-29T13:58:42;100152.47;;;25.53;100.00
16016;BME280;8112;53.592;10.184;2023-07-29T14:03:45;100153.94;;;25.83;100.00
16016;BME280;8112;53.592;10.184;2023-07-29T14:08:47;100165.72;;;25.55;100.00
16016;BME280;8112;53.592;10.184;2023-07-29T14:13:48;100165.78;;;25.82;100.00
16016;BME280;8112;53.592;10.184;2023-07-29T14:18:51;100150.59;;;25.67;100.00
16016;BME280;8112;53.592;10.184;2023-07-29T14:23:53;100158.31;;;26.04;100.00
16016;BME280;8112;53.592;10.184;2023-07-29T14:28:55;100156.53;;;25.36;100.00
16016;BME280;8112;53.592;10.184;2023-07-29T14:33:58;100158.16;;;25.30;100.00
16016;BME280;8112;53.592;10.184;2023-07-29T14:39:00;100154.66;;;25.36;100.00
16016;BME280;8112;53.592;10.184;2023-07-29T14:44:01;100154.78;;;25.97;100.00
16016;BME280;8112;53.592;10.184;2023-07-29T14:49:04;100147.13;;;26.21;100.00
16016;BME280;8112;53.592;10.184;2023-07-29T14:54:06;100163.28;;;26.14;100.00
16016;BME280;8112;53.592;10.184;2023-07-29T14:59:08;100157.28;;;26.05;100.00
16016;BME280;8112;53.592;10.184;2023-07-29T15:04:11;100151.72;;;26.20;100.00
16016;BME280;8112;53.592;10.184;2023-07-29T15:09:12;100156.25;;;25.99;100.00
16016;BME280;8112;53.592;10.184;2023-07-29T15:14:14;100164.75;;;25.89;100.00
16016;BME280;8112;53.592;10.184;2023-07-29T15:19:18;100151.56;;;25.46;100.00
16016;BME280;8112;53.592;10.184;2023-07-29T15:24:19;100157.38;;;25.43;100.00
16016;BME280;8112;53.592;10.184;2023-07-29T15:29:21;100159.97;;;26.12;100.00
16016;BME280;8112;53.592;10.184;2023-07-29T15:34:24;100152.75;;;26.19;100.00
16016;BME280;8112;53.592;10.184;2023-07-29T15:39:27;100145.44;;;27.58;100.00
16016;BME280;8112;53.592;10.184;2023-07-29T15:44:29;100147.88;;;27.73;100.00
16016;BME280;8112;53.592;10.184;2023-07-29T15:49:32;100149.97;;;28.47;100.00
16016;BME280;8112;53.592;10.184;2023-07-29T15:54:34;100152.56;;;27.52;100.00
16016;BME280;8112;53.592;10.184;2023-07-29T15:59:36;100151.38;;;28.94;100.00
16016;BME280;8112;53.592;10.184;2023-07-29T16:04:39;100153.19;;;27.48;100.00
16016;BME280;8112;53.592;10.184;2023-07-29T16:09:40;100161.06;;;25.35;100.00
16016;BME280;8112;53.592;10.184;2023-07-29T16:14:42;100170.91;;;24.72;100.00
16016;BME280;8112;53.592;10.184;2023-07-29T16:19:56;100184.91;;;24.26;100.00
16016;BME280;8112;53.592;10.184;2023-07-29T16:24:58;100201.88;;;23.83;100.00
16016;BME280;8112;53.592;10.184;2023-07-29T16:30:01;100207.88;;;23.63;100.00
16016;BME280;8112;53.592;10.184;2023-07-29T16:35:05;100243.16;;;23.08;100.00
16016;BME280;8112;53.592;10.184;2023-07-29T16:40:08;100276.25;;;22.00;100.00
16016;BME280;8112;53.592;10.184;2023-07-29T16:45:10;100291.91;;;19.83;100.00
16016;BME280;8112;53.592;10.184;2023-07-29T16:50:13;100311.78;;;18.92;100.00
16016;BME280;8112;53.592;10.184;2023-07-29T16:55:15;100308.53;;;18.62;100.00
16016;BME280;8112;53.592;10.184;2023-07-29T17:00:17;100322.41;;;18.66;100.00
16016;BME280;8112;53.592;10.184;2023-07-29T17:05:20;100312.13;;;18.53;100.00
16016;BME280;8112;53.592;10.184;2023-07-29T17:10:22;100307.63;;;18.72;100.00
16016;BME280;8112;53.592;10.184;2023-07-29T17:15:23;100323.50;;;19.18;100.00
16016;BME280;8112;53.592;10.184;2023-07-29T17:20:26;100325.09;;;19.37;100.00
16016;BME280;8112;53.592;10.184;2023-07-29T17:25:28;100335.53;;;19.48;100.00
16016;BME280;8112;53.592;10.184;2023-07-29T17:30:32;100340.91;;;19.57;100.00
16016;BME280;8112;53.592;10.184;2023-07-29T17:35:36;100361.91;;;19.51;100.00
16016;BME280;8112;53.592;10.184;2023-07-29T17:40:39;100361.34;;;19.40;100.00
16016;BME280;8112;53.592;10.184;2023-07-29T17:45:41;100375.34;;;19.33;100.00
16016;BME280;8112;53.592;10.184;2023-07-29T17:50:46;100369.50;;;19.38;100.00
16016;BME280;8112;53.592;10.184;2023-07-29T17:55:48;100362.50;;;19.37;100.00
16016;BME280;8112;53.592;10.184;2023-07-29T18:00:49;100373.44;;;19.78;100.00
16016;BME280;8112;53.592;10.184;2023-07-29T18:05:54;100374.88;;;19.99;100.00
16016;BME280;8112;53.592;10.184;2023-07-29T18:10:56;100370.88;;;20.03;100.00
16016;BME280;8112;53.592;10.184;2023-07-29T18:15:57;100385.81;;;19.79;100.00
16016;BME280;8112;53.592;10.184;2023-07-29T18:21:00;100398.00;;;19.56;100.00
16016;BME280;8112;53.592;10.184;2023-07-29T18:26:02;100402.78;;;19.44;100.00
16016;BME280;8112;53.592;10.184;2023-07-29T18:31:04;100417.25;;;19.33;100.00
16016;BME280;8112;53.592;10.184;2023-07-29T18:36:07;100409.78;;;19.18;100.00
16016;BME280;8112;53.592;10.184;2023-07-29T18:41:08;100413.94;;;19.13;100.00
16016;BME280;8112;53.592;10.184;2023-07-29T18:46:10;100415.63;;;19.14;100.00
16016;BME280;8112;53.592;10.184;2023-07-29T18:51:13;100429.47;;;19.17;100.00
16016;BME280;8112;53.592;10.184;2023-07-29T18:56:15;100430.16;;;19.19;100.00
16016;BME280;8112;53.592;10.184;2023-07-29T19:01:16;100445.13;;;19.12;100.00
16016;BME280;8112;53.592;10.184;2023-07-29T19:06:20;100434.69;;;19.19;100.00
16016;BME280;8112;53.592;10.184;2023-07-29T19:11:21;100445.63;;;19.34;100.00
16016;BME280;8112;53.592;10.184;2023-07-29T19:16:23;100452.91;;;19.23;100.00
16016;BME280;8112;53.592;10.184;2023-07-29T19:21:26;100456.59;;;19.22;100.00
16016;BME280;8112;53.592;10.184;2023-07-29T19:26:28;100455.34;;;18.99;100.00
16016;BME280;8112;53.592;10.184;2023-07-29T19:31:29;100470.06;;;18.85;100.00
16016;BME280;8112;53.592;10.184;2023-07-29T19:36:32;100462.50;;;18.80;100.00
16016;BME280;8112;53.592;10.184;2023-07-29T19:41:35;100486.97;;;18.75;100.00
16016;BME280;8112;53.592;10.184;2023-07-29T19:46:37;100484.16;;;18.77;100.00
16016;BME280;8112;53.592;10.184;2023-07-29T19:51:40;100486.19;;;18.65;100.00
16016;BME280;8112;53.592;10.184;2023-07-29T19:56:43;100486.50;;;18.62;100.00
16016;BME280;8112;53.592;10.184;2023-07-29T20:01:45;100489.81;;;18.46;100.00
16016;BME280;8112;53.592;10.184;2023-07-29T20:06:48;100493.00;;;18.31;100.00
16016;BME280;8112;53.592;10.184;2023-07-29T20:11:53;100499.31;;;18.30;100.00
16016;BME280;8112;53.592;10.184;2023-07-29T20:16:55;100490.06;;;18.25;100.00
16016;BME280;8112;53.592;10.184;2023-07-29T20:21:58;100489.91;;;18.26;100.00
16016;BME280;8112;53.592;10.184;2023-07-29T20:26:59;100493.25;;;18.28;100.00
16016;BME280;8112;53.592;10.184;2023-07-29T20:32:02;100489.38;;;18.22;100.00
16016;BME280;8112;53.592;10.184;2023-07-29T20:37:05;100490.78;;;18.17;100.00
16016;BME280;8112;53.592;10.184;2023-07-29T20:42:07;100489.41;;;18.13;100.00
16016;BME280;8112;53.592;10.184;2023-07-29T20:47:09;100482.19;;;18.23;100.00
16016;BME280;8112;53.592;10.184;2023-07-29T20:52:12;100484.50;;;18.08;100.00
16016;BME280;8112;53.592;10.184;2023-07-29T20:57:14;100482.84;;;18.07;100.00
16016;BME280;8112;53.592;10.184;2023-07-29T21:02:16;100485.34;;;18.08;100.00
16016;BME280;8112;53.592;10.184;2023-07-29T21:07:19;100489.53;;;18.11;100.00
16016;BME280;8112;53.592;10.184;2023-07-29T21:12:20;100496.00;;;18.08;100.00
16016;BME280;8112;53.592;10.184;2023-07-29T21:17:22;100498.13;;;17.95;100.00
16016;BME280;8112;53.592;10.184;2023-07-29T21:22:25;100495.03;;;17.90;100.00
16016;BME280;8112;53.592;10.184;2023-07-29T21:27:27;100497.16;;;17.96;100.00
16016;BME280;8112;53.592;10.184;2023-07-29T21:32:29;100494.91;;;17.91;100.00
16016;BME280;8112;53.592;10.184;2023-07-29T21:37:32;100492.13;;;17.73;100.00
16016;BME280;8112;53.592;10.184;2023-07-29T21:42:34;100484.28;;;17.81;100.00
16016;BME280;8112;53.592;10.184;2023-07-29T21:47:36;100482.59;;;17.80;100.00
16016;BME280;8112;53.592;10.184;2023-07-29T21:52:39;100485.25;;;17.80;100.00
16016;BME280;8112;53.592;10.184;2023-07-29T21:57:41;100481.22;;;17.76;100.00
16016;BME280;8112;53.592;10.184;2023-07-29T22:02:43;100475.75;;;17.68;100.00
16016;BME280;8112;53.592;10.184;2023-07-29T22:07:46;100480.09;;;17.69;100.00
16016;BME280;8112;53.592;10.184;2023-07-29T22:12:48;100485.72;;;17.66;100.00
16016;BME280;8112;53.592;10.184;2023-07-29T22:17:49;100488.25;;;17.38;100.00
16016;BME280;8112;53.592;10.184;2023-07-29T22:22:52;100490.09;;;17.47;100.00
16016;BME280;8112;53.592;10.184;2023-07-29T22:27:54;100488.25;;;17.58;100.00
16016;BME280;8112;53.592;10.184;2023-07-29T22:32:56;100485.47;;;17.49;100.00
16016;BME280;8112;53.592;10.184;2023-07-29T22:37:59;100484.88;;;17.46;100.00
16016;BME280;8112;53.592;10.184;2023-07-29T22:43:00;100489.13;;;17.19;100.00
16016;BME280;8112;53.592;10.184;2023-07-29T22:48:02;100486.16;;;17.32;100.00
16016;BME280;8112;53.592;10.184;2023-07-29T22:53:05;100490.19;;;17.56;100.00
16016;BME280;8112;53.592;10.184;2023-07-29T22:58:07;100496.53;;;17.55;100.00
16016;BME280;8112;53.592;10.184;2023-07-29T23:03:09;100483.75;;;17.68;100.00
16016;BME280;8112;53.592;10.184;2023-07-29T23:08:12;100483.75;;;17.68;100.00
16016;BME280;8112;53.592;10.184;2023-07-29T23:13:14;100485.13;;;17.72;100.00
16016;BME280;8112;53.592;10.184;2023-07-29T23:18:16;100480.50;;;17.74;100.00
16016;BME280;8112;53.592;10.184;2023-07-29T23:23:19;100478.94;;;17.81;100.00
16016;BME280;8112;53.592;10.184;2023-07-29T23:28:21;100471.94;;;17.80;100.00
16016;BME280;8112;53.592;10.184;2023-07-29T23:33:22;100470.66;;;17.85;100.00
16016;BME280;8112;53.592;10.184;2023-07-29T23:38:26;100471.91;;;17.90;100.00
16016;BME280;8112;53.592;10.184;2023-07-29T23:43:28;100463.91;;;17.90;100.00
16016;BME280;8112;53.592;10.184;2023-07-29T23:48:29;100462.66;;;17.85;100.00
16016;BME280;8112;53.592;10.184;2023-07-29T23:53:32;100471.13;;;17.70;100.00
16016;BME280;8112;53.592;10.184;2023-07-29T23:58:34;100483.47;;;17.61;100.00
